EmailTwitter


Observations de surface / France / LFBO (07630)

Régions: Québec | Canada | États-Unis | Europe | France | UK | Elsewhere
Station
Affichage
Infos & localisation pour LFBO (07630) | Aide pour décoder les METARs

Observations prises le 2017-04-23 à 09H30 UTC à TOULOUSE/BLAGNAC, FR (LFBO)

Température: 18.0 Celsius

Point de rosée: 4.0 Celsius

Humidité relative: 39%

Vents: Variable à 4 km/h ou 2 noeuds.

Pression au niveau moyen de la mer: 101.90 kilopascals.

Observation METAR:

LFBO 230930Z AUTO VRB02KT CAVOK 18/04 Q1019 NOSIG=